createdAt,value
2018-12-16T00:01:03.072Z,18.92
2018-12-16T00:03:46.930Z,16.65
2018-12-16T00:06:16.271Z,18.40
2018-12-16T00:08:45.237Z,19.32
2018-12-16T00:11:14.821Z,16.57
2018-12-16T00:13:43.792Z,18.60
2018-12-16T00:16:12.704Z,18.05
2018-12-16T00:18:41.644Z,16.67
2018-12-16T00:21:10.583Z,18.35
2018-12-16T00:23:40.694Z,17.50
2018-12-16T00:26:09.623Z,18.02
2018-12-16T00:28:38.560Z,17.00
2018-12-16T00:31:07.495Z,17.85
2018-12-16T00:33:36.552Z,18.12
2018-12-16T00:36:05.664Z,17.27
2018-12-16T00:38:34.601Z,15.03
2018-12-16T00:41:03.818Z,18.62
2018-12-16T00:43:33.752Z,19.92
2018-12-16T00:46:03.116Z,18.98
2018-12-16T00:48:32.967Z,18.45
2018-12-16T00:51:01.901Z,19.02
2018-12-16T00:53:30.840Z,19.00
2018-12-16T00:55:59.755Z,19.12
2018-12-16T00:58:28.702Z,20.12
2018-12-16T01:00:57.746Z,18.73
2018-12-16T01:03:26.867Z,18.70
2018-12-16T01:05:55.785Z,22.75
2018-12-16T01:08:24.724Z,21.50
2018-12-16T01:10:53.739Z,20.32
2018-12-16T01:13:22.661Z,20.17
2018-12-16T01:15:51.631Z,21.30
2018-12-16T01:18:20.615Z,19.52
2018-12-16T01:20:49.645Z,23.52
2018-12-16T01:23:18.707Z,18.62
2018-12-16T01:25:47.626Z,22.27
2018-12-16T01:28:16.646Z,22.40
2018-12-16T01:30:45.987Z,20.55
2018-12-16T01:33:14.978Z,22.40
2018-12-16T01:35:43.863Z,21.95
2018-12-16T01:38:12.841Z,22.22
2018-12-16T01:40:41.880Z,26.20
2018-12-16T01:43:10.821Z,22.10
2018-12-16T01:45:40.033Z,25.00
2018-12-16T01:48:08.899Z,22.80
2018-12-16T01:50:37.769Z,24.85
2018-12-16T01:53:06.754Z,22.93
2018-12-16T01:55:35.656Z,22.87
2018-12-16T01:58:04.676Z,21.82
2018-12-16T02:00:33.676Z,25.23
2018-12-16T02:03:02.941Z,24.32
2018-12-16T02:05:31.913Z,23.07
2018-12-16T02:08:01.675Z,24.05
2018-12-16T02:10:30.583Z,24.90
2018-12-16T02:12:59.517Z,23.67
2018-12-16T02:15:28.566Z,25.20
2018-12-16T02:17:57.448Z,25.55
2018-12-16T02:20:26.496Z,24.67
2018-12-16T02:22:57.063Z,23.40
2018-12-16T02:25:26.178Z,26.52
2018-12-16T02:27:55.091Z,24.18
2018-12-16T02:30:28.955Z,25.08
2018-12-16T02:32:58.248Z,23.75
2018-12-16T02:35:27.213Z,24.98
2018-12-16T02:37:56.115Z,24.35
2018-12-16T02:40:25.113Z,21.93
2018-12-16T02:42:54.032Z,23.42
2018-12-16T02:45:22.997Z,26.95
2018-12-16T02:47:52.029Z,23.05
2018-12-16T02:50:20.951Z,26.00
2018-12-16T02:52:49.872Z,27.70
2018-12-16T02:55:18.829Z,25.77
2018-12-16T02:57:47.698Z,25.17
2018-12-16T03:00:16.616Z,23.18
2018-12-16T03:02:45.729Z,24.85
2018-12-16T03:05:14.631Z,25.50
2018-12-16T03:07:43.796Z,24.80
2018-12-16T03:10:12.761Z,25.32
2018-12-16T03:12:41.652Z,26.07
2018-12-16T03:15:10.747Z,24.43
2018-12-16T03:17:39.686Z,24.90
2018-12-16T03:20:08.737Z,23.90
2018-12-16T03:22:37.646Z,24.45
2018-12-16T03:25:07.172Z,22.73
2018-12-16T03:27:36.158Z,22.13
2018-12-16T03:30:07.580Z,25.37
2018-12-16T03:32:36.450Z,24.63
2018-12-16T03:35:06.195Z,21.95
2018-12-16T03:37:35.168Z,24.60
2018-12-16T03:40:04.816Z,21.23
2018-12-16T03:42:34.493Z,22.48
2018-12-16T03:45:03.853Z,23.35
2018-12-16T03:47:32.792Z,22.77
2018-12-16T03:50:01.712Z,23.60
2018-12-16T03:52:30.824Z,22.40
2018-12-16T03:54:59.714Z,26.65
2018-12-16T03:57:28.623Z,23.15
2018-12-16T03:59:57.821Z,24.12
2018-12-16T04:02:26.699Z,22.40
2018-12-16T04:04:55.774Z,23.70
2018-12-16T04:07:24.745Z,28.45
2018-12-16T04:09:53.641Z,26.15
2018-12-16T04:12:22.572Z,24.18
2018-12-16T04:14:51.623Z,24.80
2018-12-16T04:17:20.578Z,23.77
2018-12-16T04:19:49.549Z,27.50
2018-12-16T04:22:18.496Z,22.58
2018-12-16T04:24:47.390Z,25.85
2018-12-16T04:27:16.278Z,23.75
2018-12-16T04:29:45.176Z,24.47
2018-12-16T04:32:14.063Z,24.67
2018-12-16T04:34:42.950Z,26.75
2018-12-16T04:37:11.901Z,24.90
2018-12-16T04:39:40.827Z,23.67
2018-12-16T04:42:09.725Z,23.60
2018-12-16T04:44:38.658Z,26.33
2018-12-16T04:47:07.625Z,28.55
2018-12-16T04:49:36.504Z,25.77
2018-12-16T04:52:05.435Z,29.30
2018-12-16T04:54:34.381Z,29.82
2018-12-16T04:57:03.379Z,30.37
2018-12-16T04:59:32.306Z,26.60
2018-12-16T05:02:02.148Z,29.72
2018-12-16T05:04:31.037Z,28.35
2018-12-16T05:07:00.105Z,24.95
2018-12-16T05:09:28.987Z,26.27
2018-12-16T05:11:58.357Z,26.68
2018-12-16T05:14:27.316Z,25.77
2018-12-16T05:16:56.940Z,24.80
2018-12-16T05:19:25.829Z,28.00
2018-12-16T05:21:54.753Z,28.20
2018-12-16T05:24:23.913Z,27.05
2018-12-16T05:26:52.828Z,28.02
2018-12-16T05:29:21.764Z,27.82
2018-12-16T05:31:50.662Z,28.98
2018-12-16T05:34:19.565Z,27.40
2018-12-16T05:36:48.542Z,26.07
2018-12-16T05:39:17.405Z,27.77
2018-12-16T05:41:46.540Z,31.00
2018-12-16T05:44:15.451Z,27.87
2018-12-16T05:46:44.330Z,28.15
2018-12-16T05:49:13.190Z,27.32
2018-12-16T05:51:42.146Z,29.05
2018-12-16T05:54:11.370Z,29.48
2018-12-16T05:56:40.254Z,27.80
2018-12-16T05:59:09.300Z,28.42
2018-12-16T06:01:38.194Z,29.85
2018-12-16T06:04:07.356Z,26.45
2018-12-16T06:06:36.300Z,30.60
2018-12-16T06:09:06.648Z,25.82
2018-12-16T06:11:35.528Z,24.63
2018-12-16T06:14:04.502Z,26.87
2018-12-16T06:16:33.410Z,26.17
2018-12-16T06:19:02.351Z,26.05
2018-12-16T06:21:31.339Z,25.08
2018-12-16T06:24:00.304Z,30.27
2018-12-16T06:26:29.201Z,26.75
2018-12-16T06:28:58.146Z,28.12
2018-12-16T06:31:27.067Z,26.52
2018-12-16T06:33:55.972Z,25.12
2018-12-16T06:36:25.053Z,25.27
2018-12-16T06:38:54.706Z,24.37
2018-12-16T06:41:23.749Z,25.30
2018-12-16T06:43:52.726Z,25.23
2018-12-16T06:46:21.735Z,24.05
2018-12-16T06:48:50.635Z,21.70
2018-12-16T06:51:19.534Z,25.25
2018-12-16T06:53:48.391Z,22.05
2018-12-16T06:56:17.249Z,22.73
2018-12-16T06:58:46.275Z,22.40
2018-12-16T07:01:16.048Z,19.87
2018-12-16T07:03:45.213Z,18.92
2018-12-16T07:06:14.195Z,20.90
2018-12-16T07:08:43.097Z,21.70
2018-12-16T07:11:12.009Z,20.17
2018-12-16T07:13:40.922Z,21.07
2018-12-16T07:16:10.096Z,19.92
2018-12-16T07:18:38.974Z,21.00
2018-12-16T07:21:07.898Z,20.50
2018-12-16T07:23:36.780Z,18.32
2018-12-16T07:26:05.736Z,17.32
2018-12-16T07:28:34.699Z,18.12
2018-12-16T07:31:03.877Z,17.40
2018-12-16T07:33:32.774Z,18.05
2018-12-16T07:36:01.752Z,19.82
2018-12-16T07:38:30.654Z,17.82
2018-12-16T07:40:59.593Z,19.10
2018-12-16T07:43:28.609Z,21.35
2018-12-16T07:45:57.509Z,19.82
2018-12-16T07:48:26.730Z,18.92
2018-12-16T07:50:55.721Z,19.30
2018-12-16T07:53:24.629Z,19.70
2018-12-16T07:55:53.551Z,20.15
2018-12-16T07:58:22.504Z,20.62
2018-12-16T08:00:51.405Z,19.92
2018-12-16T08:03:20.323Z,17.82
2018-12-16T08:05:49.279Z,18.90
2018-12-16T08:08:18.219Z,19.05
2018-12-16T08:10:47.125Z,16.40
2018-12-16T08:13:16.095Z,20.23
2018-12-16T08:15:44.985Z,20.00
2018-12-16T08:18:13.876Z,21.73
2018-12-16T08:20:42.838Z,21.00
2018-12-16T08:23:11.755Z,19.30
2018-12-16T08:25:40.734Z,21.42
2018-12-16T08:28:09.653Z,20.55
2018-12-16T08:30:38.575Z,16.85
2018-12-16T08:33:07.463Z,21.33
2018-12-16T08:35:36.585Z,21.12
2018-12-16T08:38:05.474Z,21.27
2018-12-16T08:40:34.595Z,22.55
2018-12-16T08:43:03.890Z,18.73
2018-12-16T08:45:32.818Z,23.30
2018-12-16T08:48:02.252Z,18.82
2018-12-16T08:50:31.177Z,22.58
2018-12-16T08:53:01.082Z,22.52
2018-12-16T08:55:29.978Z,21.00
2018-12-16T08:57:59.061Z,21.42
2018-12-16T09:00:27.971Z,20.72
2018-12-16T09:02:56.976Z,20.35
2018-12-16T09:05:27.652Z,18.90
2018-12-16T09:07:57.670Z,19.73
2018-12-16T09:10:34.047Z,17.92
2018-12-16T09:13:00.207Z,19.82
2018-12-16T09:15:29.129Z,21.27
2018-12-16T09:17:58.200Z,21.85
2018-12-16T09:20:27.193Z,20.80
2018-12-16T09:22:58.082Z,19.00
2018-12-16T09:25:27.126Z,18.27
2018-12-16T09:27:56.327Z,19.02
2018-12-16T09:30:25.386Z,19.05
2018-12-16T09:32:55.726Z,21.90
2018-12-16T09:35:25.213Z,21.60
2018-12-16T09:37:55.160Z,21.17
2018-12-16T09:40:24.516Z,17.80
2018-12-16T09:42:53.804Z,21.27
2018-12-16T09:45:22.707Z,22.02
2018-12-16T09:47:52.902Z,19.17
2018-12-16T09:50:22.656Z,21.97
2018-12-16T09:52:51.759Z,22.15
2018-12-16T09:55:20.713Z,24.60
2018-12-16T09:57:49.784Z,23.02
2018-12-16T10:00:18.731Z,22.55
2018-12-16T10:02:47.682Z,22.30
2018-12-16T10:05:16.716Z,25.55
2018-12-16T10:07:45.678Z,25.88
2018-12-16T10:10:14.608Z,24.02
2018-12-16T10:12:44.017Z,23.42
2018-12-16T10:15:12.981Z,23.20
2018-12-16T10:17:43.208Z,23.25
2018-12-16T10:20:13.058Z,22.32
2018-12-16T10:22:42.062Z,21.42
2018-12-16T10:25:10.988Z,24.90
2018-12-16T10:27:39.979Z,23.42
2018-12-16T10:30:09.902Z,25.85
2018-12-16T10:32:38.829Z,22.70
2018-12-16T10:35:08.001Z,23.92
2018-12-16T10:37:36.916Z,23.90
2018-12-16T10:40:06.579Z,25.08
2018-12-16T10:42:35.567Z,24.12
2018-12-16T10:45:05.624Z,24.87
2018-12-16T10:47:35.094Z,25.97
2018-12-16T10:50:04.756Z,20.48
2018-12-16T10:52:34.034Z,23.10
2018-12-16T10:55:03.542Z,21.73
2018-12-16T10:57:32.481Z,21.97
2018-12-16T11:00:01.403Z,22.20
2018-12-16T11:02:30.332Z,20.27
2018-12-16T11:04:59.304Z,23.85
2018-12-16T11:07:28.776Z,22.15
2018-12-16T11:09:57.801Z,25.62
2018-12-16T11:12:26.950Z,26.07
2018-12-16T11:14:55.877Z,26.02
2018-12-16T11:17:24.825Z,24.00
2018-12-16T11:19:53.722Z,27.70
2018-12-16T11:22:22.645Z,26.20
2018-12-16T11:24:51.602Z,23.38
2018-12-16T11:27:20.525Z,23.62
2018-12-16T11:29:49.436Z,23.45
2018-12-16T11:32:18.593Z,26.60
2018-12-16T11:34:47.524Z,29.23
2018-12-16T11:37:16.463Z,32.53
2018-12-16T11:39:45.453Z,25.45
2018-12-16T11:42:14.385Z,26.75
2018-12-16T11:44:43.404Z,24.57
2018-12-16T11:47:12.391Z,26.62
2018-12-16T11:49:41.309Z,28.32
2018-12-16T11:52:10.246Z,28.67
2018-12-16T11:54:39.233Z,32.42
2018-12-16T11:57:09.124Z,28.73
2018-12-16T11:59:38.236Z,25.97
2018-12-16T12:02:07.194Z,26.77
2018-12-16T12:04:36.093Z,26.40
2018-12-16T12:07:05.055Z,26.68
2018-12-16T12:09:34.040Z,26.60
2018-12-16T12:12:02.981Z,23.42
2018-12-16T12:14:32.023Z,22.30
2018-12-16T12:17:01.035Z,24.05
2018-12-16T12:19:41.981Z,21.87
2018-12-16T12:22:11.013Z,27.22
2018-12-16T12:24:39.939Z,22.70
2018-12-16T12:27:08.862Z,23.80
2018-12-16T12:29:37.789Z,26.80
2018-12-16T12:32:06.697Z,25.97
2018-12-16T12:34:35.621Z,21.97
2018-12-16T12:37:04.891Z,26.37
2018-12-16T12:39:34.069Z,26.33
2018-12-16T12:42:03.039Z,29.00
2018-12-16T12:44:31.968Z,24.98
2018-12-16T12:47:00.965Z,26.05
2018-12-16T12:49:29.853Z,27.70
2018-12-16T12:51:59.156Z,25.23
2018-12-16T12:54:28.069Z,27.98
2018-12-16T12:56:56.956Z,29.27
2018-12-16T12:59:25.985Z,28.60
2018-12-16T13:01:54.908Z,26.20
2018-12-16T13:04:23.911Z,27.15
2018-12-16T13:06:52.914Z,28.02
2018-12-16T13:09:22.935Z,29.48
2018-12-16T13:11:51.865Z,25.68
2018-12-16T13:14:20.854Z,29.40
2018-12-16T13:16:49.853Z,27.42
2018-12-16T13:19:19.009Z,25.37
2018-12-16T13:21:47.998Z,24.87
2018-12-16T13:24:16.889Z,27.25
2018-12-16T13:26:46.963Z,25.68
2018-12-16T13:29:15.951Z,23.62
2018-12-16T13:31:44.975Z,21.25
2018-12-16T13:34:14.011Z,22.22
2018-12-16T13:36:43.047Z,21.80
2018-12-16T13:39:11.986Z,18.65
2018-12-16T13:41:40.960Z,19.60
2018-12-16T13:44:10.216Z,20.50
2018-12-16T13:46:40.471Z,18.37
2018-12-16T13:49:09.484Z,20.50
2018-12-16T13:51:38.494Z,17.50
2018-12-16T13:54:07.486Z,16.10
2018-12-16T13:56:37.094Z,16.87
2018-12-16T13:59:06.099Z,17.37
2018-12-16T14:01:36.028Z,17.87
2018-12-16T14:04:05.023Z,17.17
2018-12-16T14:06:34.083Z,18.37
2018-12-16T14:09:03.175Z,20.02
2018-12-16T14:11:32.129Z,20.90
2018-12-16T14:14:01.094Z,22.65
2018-12-16T14:16:30.085Z,21.20
2018-12-16T14:18:59.630Z,21.25
2018-12-16T14:21:28.585Z,19.32
2018-12-16T14:23:57.546Z,21.07
2018-12-16T14:26:27.354Z,22.87
2018-12-16T14:28:56.319Z,17.90
2018-12-16T14:31:25.198Z,20.97
2018-12-16T14:33:54.190Z,17.67
2018-12-16T14:36:23.152Z,14.83
2018-12-16T14:38:52.069Z,14.80
2018-12-16T14:41:20.978Z,12.18
2018-12-16T14:43:50.001Z,12.40
2018-12-16T14:46:20.514Z,14.25
2018-12-16T14:48:50.677Z,10.00
2018-12-16T14:51:19.723Z,10.05
2018-12-16T14:53:49.639Z,11.55
2018-12-16T14:56:18.653Z,10.88
2018-12-16T14:58:48.726Z,12.90
2018-12-16T15:01:19.224Z,8.90
2018-12-16T15:03:48.361Z,10.38
2018-12-16T15:06:17.940Z,9.35
2018-12-16T15:08:47.131Z,10.40
2018-12-16T15:11:16.342Z,13.80
2018-12-16T15:13:45.448Z,11.08
2018-12-16T15:16:14.604Z,10.78
2018-12-16T15:18:43.868Z,11.55
2018-12-16T15:21:13.591Z,11.95
2018-12-16T15:23:42.604Z,10.60
2018-12-16T15:26:11.823Z,10.93
2018-12-16T15:28:41.581Z,12.75
2018-12-16T15:31:10.649Z,13.15
2018-12-16T15:33:39.744Z,21.10
2018-12-16T15:36:08.978Z,15.43
2018-12-16T15:38:38.154Z,14.73
2018-12-16T15:41:07.203Z,14.78
2018-12-16T15:43:36.159Z,12.28
2018-12-16T15:46:05.278Z,13.60
2018-12-16T15:48:34.516Z,14.70
2018-12-16T15:51:03.738Z,11.57
2018-12-16T15:53:33.421Z,15.10
2018-12-16T15:56:09.100Z,16.35
2018-12-16T15:58:34.400Z,14.93
2018-12-16T16:01:03.590Z,14.78
2018-12-16T16:03:32.641Z,14.43
2018-12-16T16:06:01.649Z,12.70
2018-12-16T16:08:30.714Z,15.90
2018-12-16T16:10:59.793Z,15.18
2018-12-16T16:13:28.874Z,20.23
2018-12-16T16:15:58.586Z,14.40
2018-12-16T16:18:29.204Z,22.30
2018-12-16T16:20:58.251Z,17.65
2018-12-16T16:23:27.278Z,17.52
2018-12-16T16:25:56.554Z,15.80
2018-12-16T16:28:25.752Z,15.48
2018-12-16T16:30:54.814Z,15.00
2018-12-16T16:33:24.008Z,18.65
2018-12-16T16:35:53.449Z,15.35
2018-12-16T16:38:22.472Z,17.67
2018-12-16T16:40:52.237Z,14.55
2018-12-16T16:43:21.268Z,14.45
2018-12-16T16:45:50.275Z,13.22
2018-12-16T16:48:19.297Z,15.93
2018-12-16T16:50:48.233Z,16.00
2018-12-16T16:53:17.184Z,15.80
2018-12-16T16:55:46.313Z,16.93
2018-12-16T16:58:15.258Z,16.80
2018-12-16T17:00:44.238Z,19.57
2018-12-16T17:03:13.247Z,17.40
2018-12-16T17:05:42.219Z,21.87
2018-12-16T17:08:11.126Z,21.25
2018-12-16T17:10:40.233Z,19.75
2018-12-16T17:13:09.256Z,19.98
2018-12-16T17:15:38.247Z,20.80
2018-12-16T17:18:07.268Z,21.65
2018-12-16T17:20:36.422Z,20.12
2018-12-16T17:23:05.795Z,20.60
2018-12-16T17:25:35.272Z,21.85
2018-12-16T17:28:04.960Z,20.77
2018-12-16T17:30:34.122Z,20.15
2018-12-16T17:33:03.141Z,20.95
2018-12-16T17:35:32.618Z,21.55
2018-12-16T17:38:01.881Z,23.10
2018-12-16T17:40:31.044Z,20.35
2018-12-16T17:43:00.085Z,22.05
2018-12-16T17:45:30.302Z,21.93
2018-12-16T17:47:59.361Z,23.20
2018-12-16T17:50:28.566Z,22.42
2018-12-16T17:52:58.418Z,20.90
2018-12-16T17:55:27.613Z,23.47
2018-12-16T17:57:56.750Z,24.70
2018-12-16T18:00:26.001Z,22.80
2018-12-16T18:02:55.324Z,21.60
2018-12-16T18:05:24.429Z,22.65
2018-12-16T18:07:53.622Z,21.85
2018-12-16T18:10:22.794Z,21.48
2018-12-16T18:12:52.121Z,21.07
2018-12-16T18:15:21.320Z,20.02
2018-12-16T18:17:50.562Z,20.37
2018-12-16T18:20:19.671Z,22.02
2018-12-16T18:22:48.724Z,20.57
2018-12-16T18:25:17.736Z,20.97
2018-12-16T18:27:46.669Z,21.97
2018-12-16T18:30:15.678Z,21.85
2018-12-16T18:32:44.977Z,23.57
2018-12-16T18:35:14.370Z,22.07
2018-12-16T18:37:43.690Z,24.52
2018-12-16T18:40:12.940Z,27.90
2018-12-16T18:42:42.745Z,27.85
2018-12-16T18:45:12.661Z,28.98
2018-12-16T18:47:41.790Z,29.45
2018-12-16T18:50:11.978Z,32.15
2018-12-16T18:52:42.213Z,31.90
2018-12-16T18:55:11.418Z,28.75
2018-12-16T18:57:41.198Z,30.40
2018-12-16T19:00:13.288Z,32.88
2018-12-16T19:02:42.446Z,35.33
2018-12-16T19:05:11.744Z,31.25
2018-12-16T19:07:41.613Z,33.75
2018-12-16T19:10:10.697Z,30.60
2018-12-16T19:12:40.411Z,29.70
2018-12-16T19:15:10.125Z,28.35
2018-12-16T19:17:39.230Z,31.07
2018-12-16T19:20:08.470Z,29.00
2018-12-16T19:22:37.673Z,28.40
2018-12-16T19:25:06.963Z,30.02
2018-12-16T19:27:36.140Z,30.77
2018-12-16T19:30:06.220Z,32.40
2018-12-16T19:32:36.341Z,31.50
2018-12-16T19:35:07.359Z,33.75
2018-12-16T19:37:36.870Z,34.45
2018-12-16T19:40:06.463Z,36.68
2018-12-16T19:42:36.563Z,33.83
2018-12-16T19:45:06.798Z,31.73
2018-12-16T19:47:36.710Z,35.20
2018-12-16T19:50:07.852Z,34.75
2018-12-16T19:52:37.329Z,35.98
2018-12-16T19:55:08.481Z,34.08
2018-12-16T19:57:37.558Z,34.38
2018-12-16T20:00:27.431Z,43.95
2018-12-16T20:02:56.916Z,35.48
2018-12-16T20:05:26.155Z,36.10
2018-12-16T20:07:57.083Z,29.25
2018-12-16T20:10:26.578Z,32.20
2018-12-16T20:12:57.553Z,30.82
2018-12-16T20:15:27.536Z,31.15
2018-12-16T20:17:57.989Z,33.48
2018-12-16T20:20:27.081Z,30.90
2018-12-16T20:22:56.256Z,32.53
2018-12-16T20:25:25.760Z,33.38
2018-12-16T20:27:54.826Z,33.98
2018-12-16T20:30:31.240Z,34.83
2018-12-16T20:33:01.227Z,27.90
2018-12-16T20:35:30.763Z,29.20
2018-12-16T20:37:59.874Z,31.07
2018-12-16T20:40:29.668Z,30.23
2018-12-16T20:43:00.680Z,35.03
2018-12-16T20:45:29.668Z,36.25
2018-12-16T20:48:00.337Z,34.60
2018-12-16T20:50:29.798Z,30.25
2018-12-16T20:53:04.356Z,28.38
2018-12-16T20:55:34.314Z,31.02
2018-12-16T20:58:05.114Z,36.45
2018-12-16T21:00:34.966Z,39.67
2018-12-16T21:03:04.719Z,37.63
2018-12-16T21:05:33.873Z,35.20
2018-12-16T21:08:03.423Z,33.90
2018-12-16T21:10:33.853Z,36.10
2018-12-16T21:13:08.661Z,33.53
2018-12-16T21:15:43.711Z,34.80
2018-12-16T21:18:19.466Z,34.88
2018-12-16T21:20:49.511Z,36.03
2018-12-16T21:23:18.476Z,32.75
2018-12-16T21:25:48.478Z,39.30
2018-12-16T21:28:18.539Z,31.50
2018-12-16T21:30:47.938Z,30.92
2018-12-16T21:33:17.876Z,32.60
2018-12-16T21:35:47.205Z,33.10
2018-12-16T21:38:16.596Z,30.32
2018-12-16T21:40:50.006Z,33.42
2018-12-16T21:43:19.738Z,31.27
2018-12-16T21:45:49.213Z,32.45
2018-12-16T21:48:19.354Z,32.25
2018-12-16T21:50:48.361Z,32.65
2018-12-16T21:53:18.840Z,31.87
2018-12-16T21:55:48.532Z,32.48
2018-12-16T21:58:22.205Z,30.85
2018-12-16T22:00:52.860Z,31.68
2018-12-16T22:03:21.848Z,35.28
2018-12-16T22:05:50.970Z,32.42
2018-12-16T22:08:20.325Z,36.38
2018-12-16T22:10:49.369Z,37.00
2018-12-16T22:13:19.453Z,37.38
2018-12-16T22:15:48.521Z,33.65
2018-12-16T22:18:17.482Z,37.50
2018-12-16T22:20:46.882Z,33.50
2018-12-16T22:23:16.594Z,35.88
2018-12-16T22:25:46.637Z,35.40
2018-12-16T22:28:15.809Z,34.60
2018-12-16T22:30:44.845Z,36.20
2018-12-16T22:33:13.860Z,36.77
2018-12-16T22:35:42.946Z,31.70
2018-12-16T22:38:12.245Z,33.95
2018-12-16T22:40:42.080Z,32.40
2018-12-16T22:43:17.179Z,31.25
2018-12-16T22:45:46.269Z,28.02
2018-12-16T22:48:16.190Z,30.30
2018-12-16T22:50:45.223Z,27.55
2018-12-16T22:53:14.170Z,25.88
2018-12-16T22:55:43.122Z,25.65
2018-12-16T22:58:12.136Z,29.52
2018-12-16T23:00:46.405Z,25.12
2018-12-16T23:03:15.410Z,22.25
2018-12-16T23:05:44.356Z,22.13
2018-12-16T23:08:13.252Z,22.15
2018-12-16T23:10:42.300Z,22.98
2018-12-16T23:13:11.282Z,22.50
2018-12-16T23:15:40.154Z,22.17
2018-12-16T23:18:09.135Z,23.25
2018-12-16T23:20:38.287Z,26.07
2018-12-16T23:23:07.170Z,23.02
2018-12-16T23:25:36.106Z,22.93
2018-12-16T23:28:05.066Z,21.30
2018-12-16T23:30:33.979Z,23.60
2018-12-16T23:33:03.019Z,24.57
2018-12-16T23:35:31.960Z,23.02
2018-12-16T23:38:00.907Z,23.73
2018-12-16T23:40:29.870Z,24.20
2018-12-16T23:42:58.797Z,24.72
2018-12-16T23:45:27.726Z,24.27
2018-12-16T23:47:56.839Z,23.45
2018-12-16T23:50:25.772Z,24.12
2018-12-16T23:52:54.664Z,23.10
2018-12-16T23:55:23.701Z,21.48
2018-12-16T23:57:52.616Z,20.88
